Time;durP1;ratioP1;P1;durP2;ratioP2;P2;SDS_P1;SDS_P2;PMS_P1;PMS_P2;Temp;Humidity;BMP_temperature;BMP_pressure;BME280_temperature;BME280_humidity;BME280_pressure;Samples;Min_cycle;Max_cycle;Signal;HPM_P1;HPM_P2
2023/02/18 00:00:56;;;;;;;1.60;1.50;;;13.20;99.90;;;;;;6145836;28;20055;-77
2023/02/18 00:04:00;;;;;;;3.33;1.40;;;13.20;99.90;;;;;;6148055;28;20039;-77
2023/02/18 00:07:02;;;;;;;2.22;1.85;;;13.20;99.90;;;;;;6150087;29;20057;-79
2023/02/18 00:10:07;;;;;;;4.07;1.40;;;13.30;99.90;;;;;;6149577;28;20417;-78
2023/02/18 00:13:08;;;;;;;3.13;1.60;;;13.30;99.90;;;;;;6151404;29;20054;-78
2023/02/18 00:16:12;;;;;;;3.47;1.58;;;13.30;99.90;;;;;;6152224;29;20050;-77
2023/02/18 00:19:17;;;;;;;3.47;2.55;;;13.30;99.90;;;;;;6149874;29;20054;-77
2023/02/18 00:22:19;;;;;;;2.47;1.48;;;13.30;99.90;;;;;;6146994;28;20043;-77
2023/02/18 00:25:21;;;;;;;2.67;1.77;;;13.30;99.90;;;;;;6149577;28;20059;-77
2023/02/18 00:28:22;;;;;;;1.98;1.77;;;13.30;99.90;;;;;;6149482;28;20537;-77
2023/02/18 00:31:27;;;;;;;1.60;1.50;;;13.30;99.90;;;;;;6149681;29;20421;-77
2023/02/18 00:34:30;;;;;;;2.78;2.00;;;13.30;99.90;;;;;;6149462;28;20047;-77
2023/02/18 00:37:32;;;;;;;1.95;1.67;;;13.30;99.90;;;;;;6148829;28;20058;-77
2023/02/18 00:40:37;;;;;;;1.83;1.73;;;13.30;99.90;;;;;;6148638;28;20051;-77
2023/02/18 00:43:39;;;;;;;1.67;1.58;;;13.30;99.90;;;;;;6149427;29;20047;-77
2023/02/18 00:46:41;;;;;;;2.47;1.88;;;13.20;99.90;;;;;;6149736;28;20414;-77
2023/02/18 00:49:44;;;;;;;2.05;1.85;;;13.20;99.90;;;;;;6149613;28;20051;-77
2023/02/18 00:52:46;;;;;;;3.88;2.13;;;13.20;99.90;;;;;;6149461;28;20431;-78
2023/02/18 00:55:47;;;;;;;1.95;1.60;;;13.20;99.90;;;;;;6150076;28;20066;-77
2023/02/18 00:58:49;;;;;;;3.40;1.55;;;13.20;99.90;;;;;;6147529;28;20051;-77
2023/02/18 01:01:51;;;;;;;9.07;2.45;;;13.20;99.90;;;;;;6147486;28;20047;-77
2023/02/18 01:04:54;;;;;;;2.00;1.80;;;13.20;99.90;;;;;;6150030;28;20058;-77
2023/02/18 01:07:56;;;;;;;2.10;1.90;;;13.20;99.90;;;;;;6150426;28;20071;-77
2023/02/18 01:10:59;;;;;;;4.10;2.05;;;13.10;99.90;;;;;;6150394;29;20051;-77
2023/02/18 01:14:02;;;;;;;3.45;2.28;;;13.10;99.90;;;;;;6149189;28;20134;-77
2023/02/18 01:17:03;;;;;;;3.60;2.28;;;13.10;99.90;;;;;;6148479;28;20421;-77
2023/02/18 01:20:08;;;;;;;2.65;2.38;;;13.10;99.90;;;;;;6147968;28;20051;-77
2023/02/18 01:23:11;;;;;;;2.40;2.20;;;13.10;99.90;;;;;;6150110;29;20047;-77
2023/02/18 01:26:14;;;;;;;2.53;2.15;;;13.10;99.90;;;;;;6148920;28;20047;-77
2023/02/18 01:29:16;;;;;;;2.50;2.15;;;13.00;99.90;;;;;;6147520;28;20716;-77
2023/02/18 01:32:18;;;;;;;2.88;2.50;;;13.00;99.90;;;;;;6140395;28;20125;-77
2023/02/18 01:35:21;;;;;;;3.47;3.17;;;13.00;99.90;;;;;;6139553;28;20055;-77
2023/02/18 01:38:23;;;;;;;3.75;3.45;;;13.00;99.90;;;;;;6152972;28;20066;-77
2023/02/18 01:41:24;;;;;;;5.32;2.63;;;13.00;99.90;;;;;;6153456;28;20429;-77
2023/02/18 01:44:28;;;;;;;3.10;2.80;;;13.00;99.90;;;;;;6153029;28;20051;-77
2023/02/18 01:47:30;;;;;;;4.43;3.03;;;12.90;99.90;;;;;;6154423;29;20051;-77
2023/02/18 01:50:35;;;;;;;4.93;3.65;;;12.90;99.90;;;;;;6153326;28;20066;-78
2023/02/18 01:53:43;;;;;;;4.18;3.22;;;12.90;99.90;;;;;;6154293;29;20039;-77
2023/02/18 01:56:47;;;;;;;;;;;12.90;99.90;;;;;;6154247;29;20070;-78
2023/02/18 01:59:51;;;;;;;7.32;3.80;;;12.80;99.90;;;;;;6148668;28;19955;-77
2023/02/18 02:02:53;;;;;;;3.65;2.85;;;12.90;99.90;;;;;;6133221;28;20055;-78
2023/02/18 02:05:56;;;;;;;4.25;3.75;;;12.80;99.90;;;;;;6150087;28;20050;-78
2023/02/18 02:09:02;;;;;;;4.20;3.60;;;12.80;99.90;;;;;;6153818;28;20054;-78
2023/02/18 02:12:28;;;;;;;4.10;3.70;;;12.80;99.90;;;;;;6153294;28;20056;-77
2023/02/18 02:15:41;;;;;;;3.97;3.42;;;12.80;99.90;;;;;;6153368;29;20070;-78
2023/02/18 02:18:55;;;;;;;3.78;3.38;;;12.70;99.90;;;;;;6153435;28;20058;-77
2023/02/18 02:22:40;;;;;;;4.07;3.47;;;12.70;99.90;;;;;;6153328;28;20070;-78
2023/02/18 02:26:09;;;;;;;4.50;3.92;;;12.70;99.90;;;;;;6145705;28;20051;-77
2023/02/18 02:29:50;;;;;;;4.72;3.90;;;12.60;99.90;;;;;;6152891;28;20047;-78
2023/02/18 02:33:47;;;;;;;4.18;3.78;;;12.60;99.90;;;;;;6107195;29;20046;-78
2023/02/18 02:36:54;;;;;;;4.38;3.97;;;12.60;99.90;;;;;;6151195;28;20054;-78
2023/02/18 02:40:18;;;;;;;8.68;4.65;;;12.50;99.90;;;;;;6151423;28;20047;-77
2023/02/18 02:43:27;;;;;;;4.15;3.75;;;12.50;99.90;;;;;;6152708;29;20401;-77
2023/02/18 02:46:35;;;;;;;4.80;4.13;;;12.40;99.90;;;;;;6151239;28;20047;-77
2023/02/18 02:49:46;;;;;;;6.93;4.53;;;12.40;99.90;;;;;;6150648;28;20055;-77
2023/02/18 02:52:55;;;;;;;4.45;4.03;;;12.30;99.90;;;;;;6149713;28;20047;-78
2023/02/18 02:55:57;;;;;;;4.70;4.30;;;12.30;99.90;;;;;;6128718;29;20058;-78
2023/02/18 02:59:03;;;;;;;5.68;5.18;;;12.30;99.90;;;;;;6136337;29;20057;-77
2023/02/18 03:02:18;;;;;;;6.65;5.47;;;12.20;99.90;;;;;;6139331;28;20047;-77
2023/02/18 03:05:28;;;;;;;4.95;4.18;;;12.20;99.90;;;;;;6144787;28;20058;-78
2023/02/18 03:08:40;;;;;;;5.05;4.55;;;12.30;99.90;;;;;;6150624;28;20051;-78
2023/02/18 03:11:47;;;;;;;7.45;4.43;;;12.30;99.90;;;;;;6151431;29;20056;-78
2023/02/18 03:15:00;;;;;;;4.82;4.40;;;12.30;99.90;;;;;;6150117;29;20048;-77
2023/02/18 03:18:08;;;;;;;5.40;4.38;;;12.30;99.90;;;;;;6150743;28;20130;-77
2023/02/18 03:21:13;;;;;;;5.97;4.38;;;12.30;99.90;;;;;;6151231;28;20047;-77
2023/02/18 03:24:20;;;;;;;7.93;4.82;;;12.30;99.90;;;;;;6148583;28;20653;-77
2023/02/18 03:27:25;;;;;;;4.67;4.27;;;12.40;99.90;;;;;;6143137;29;20051;-77
2023/02/18 03:30:31;;;;;;;4.65;3.80;;;12.40;99.90;;;;;;6150654;28;20110;-78
2023/02/18 03:33:38;;;;;;;5.95;3.97;;;12.40;99.90;;;;;;6151069;28;20055;-77
2023/02/18 03:36:41;;;;;;;5.20;4.57;;;12.30;99.90;;;;;;6150474;28;20206;-77
2023/02/18 03:39:48;;;;;;;5.45;4.90;;;12.40;99.90;;;;;;6147960;29;20058;-78
2023/02/18 03:42:49;;;;;;;4.10;3.65;;;12.40;99.90;;;;;;6150787;29;20114;-77
2023/02/18 03:45:51;;;;;;;4.40;3.83;;;12.40;99.90;;;;;;6150372;28;20051;-77
2023/02/18 03:48:53;;;;;;;7.07;3.85;;;12.40;99.90;;;;;;6150137;28;20074;-78
2023/02/18 03:51:55;;;;;;;5.25;3.55;;;12.40;99.90;;;;;;6148845;28;20047;-77
2023/02/18 03:54:58;;;;;;;5.78;3.78;;;12.40;99.90;;;;;;6150997;29;20051;-77
2023/02/18 03:57:59;;;;;;;4.43;4.03;;;12.40;99.90;;;;;;6149789;28;20059;-77
2023/02/18 04:01:01;;;;;;;4.63;4.13;;;12.40;99.90;;;;;;6149866;28;20050;-77
2023/02/18 04:04:03;;;;;;;4.03;3.63;;;12.40;99.90;;;;;;6143710;28;20051;-77
2023/02/18 04:07:05;;;;;;;5.18;3.55;;;12.40;99.90;;;;;;6151333;29;20062;-77
2023/02/18 04:10:10;;;;;;;6.32;4.05;;;12.40;99.90;;;;;;6151215;28;20047;-77
2023/02/18 04:13:11;;;;;;;5.85;4.35;;;12.40;99.90;;;;;;6151264;29;20047;-77
2023/02/18 04:16:13;;;;;;;5.28;3.83;;;12.40;99.90;;;;;;6150644;29;20043;-77
2023/02/18 04:19:15;;;;;;;4.57;4.18;;;12.40;99.90;;;;;;6150959;29;20047;-77
2023/02/18 04:22:17;;;;;;;8.57;4.65;;;12.40;99.90;;;;;;6150172;28;20058;-77
2023/02/18 04:25:20;;;;;;;3.83;3.42;;;12.40;99.90;;;;;;6150447;28;20047;-77
2023/02/18 04:28:22;;;;;;;4.68;4.18;;;12.40;99.90;;;;;;6150092;29;20714;-77
2023/02/18 04:31:24;;;;;;;4.45;4.05;;;12.40;99.90;;;;;;6150793;29;20047;-78
2023/02/18 04:34:26;;;;;;;4.43;3.92;;;12.30;99.90;;;;;;6149899;28;20126;-77
2023/02/18 04:37:27;;;;;;;4.30;3.90;;;12.30;99.90;;;;;;6150517;29;20047;-78
2023/02/18 04:40:30;;;;;;;4.40;3.97;;;12.30;99.90;;;;;;6149759;28;20051;-77
2023/02/18 04:43:32;;;;;;;4.63;4.10;;;12.30;99.90;;;;;;6150801;29;20078;-77
2023/02/18 04:46:34;;;;;;;3.30;2.92;;;12.20;99.90;;;;;;6150620;28;20170;-77
2023/02/18 04:49:36;;;;;;;4.97;4.30;;;12.20;99.90;;;;;;6148685;28;20067;-77
2023/02/18 04:52:38;;;;;;;4.57;4.18;;;12.20;99.90;;;;;;6148701;28;20062;-77
2023/02/18 04:55:42;;;;;;;4.53;3.38;;;12.20;99.90;;;;;;6150928;29;20055;-77
2023/02/18 04:58:44;;;;;;;4.68;4.10;;;12.20;99.90;;;;;;6147242;29;20076;-77
2023/02/18 05:01:47;;;;;;;4.15;3.75;;;12.10;99.90;;;;;;6148770;28;20052;-77
2023/02/18 05:04:48;;;;;;;4.90;3.90;;;12.20;99.90;;;;;;6135219;28;20192;-77
2023/02/18 05:07:50;;;;;;;3.60;3.30;;;12.10;99.90;;;;;;6125918;29;20052;-78
2023/02/18 05:10:54;;;;;;;4.18;3.60;;;12.10;99.90;;;;;;6124169;29;20146;-77
2023/02/18 05:13:56;;;;;;;5.20;3.17;;;12.10;99.90;;;;;;6125824;29;20580;-77
2023/02/18 05:16:59;;;;;;;6.20;5.55;;;12.10;99.90;;;;;;6125407;29;20087;-77
2023/02/18 05:20:01;;;;;;;3.65;3.35;;;12.00;99.90;;;;;;6125691;29;20106;-77
2023/02/18 05:23:02;;;;;;;5.60;4.05;;;12.10;99.90;;;;;;6125251;29;20107;-77
2023/02/18 05:26:06;;;;;;;4.15;3.85;;;12.10;99.90;;;;;;6125190;29;20067;-77
2023/02/18 05:29:08;;;;;;;3.67;2.90;;;12.10;99.90;;;;;;6125828;29;20048;-77
2023/02/18 05:32:09;;;;;;;4.25;3.65;;;12.10;99.90;;;;;;6125010;29;20183;-77
2023/02/18 05:35:12;;;;;;;4.95;3.70;;;12.10;99.90;;;;;;6125895;29;20055;-77
2023/02/18 05:38:14;;;;;;;3.65;2.97;;;12.10;99.90;;;;;;6136959;29;20047;-77
2023/02/18 05:41:17;;;;;;;4.15;3.25;;;12.10;99.90;;;;;;6148836;28;20078;-78
2023/02/18 05:44:31;;;;;;;3.78;3.15;;;12.20;99.90;;;;;;6148379;28;20051;-78
2023/02/18 05:47:33;;;;;;;4.95;3.55;;;12.20;99.90;;;;;;6149486;29;20094;-78
2023/02/18 05:50:34;;;;;;;4.53;4.10;;;12.20;99.90;;;;;;6148408;28;20417;-78
2023/02/18 05:53:36;;;;;;;3.83;3.33;;;12.20;99.90;;;;;;6148289;28;20047;-77
2023/02/18 05:56:39;;;;;;;4.30;3.17;;;12.30;99.90;;;;;;6149159;28;20055;-77
2023/02/18 05:59:41;;;;;;;4.22;3.40;;;12.30;99.90;;;;;;6152289;29;20051;-79
2023/02/18 06:02:43;;;;;;;4.97;3.05;;;12.30;99.90;;;;;;6152327;28;20051;-78
2023/02/18 06:05:49;;;;;;;4.15;3.40;;;12.30;99.90;;;;;;6149042;28;20051;-78
2023/02/18 06:08:51;;;;;;;3.40;3.10;;;12.30;99.90;;;;;;6151644;28;20059;-79
2023/02/18 06:11:54;;;;;;;4.22;3.22;;;12.30;99.90;;;;;;6152132;28;20048;-78
2023/02/18 06:14:56;;;;;;;4.45;3.30;;;12.30;99.90;;;;;;6152663;29;20051;-79
2023/02/18 06:17:57;;;;;;;3.28;2.97;;;12.30;99.90;;;;;;6152784;28;20055;-79
2023/02/18 06:20:59;;;;;;;4.25;3.70;;;12.30;99.90;;;;;;6153848;28;20051;-78
2023/02/18 06:24:01;;;;;;;3.88;3.05;;;12.40;99.90;;;;;;6158269;28;20047;-79
2023/02/18 06:27:04;;;;;;;3.15;2.85;;;12.30;99.90;;;;;;6159560;29;20050;-77
2023/02/18 06:30:07;;;;;;;5.00;3.63;;;12.40;99.90;;;;;;6158464;28;20054;-77
2023/02/18 06:33:09;;;;;;;6.25;3.80;;;12.40;99.90;;;;;;6156688;28;20401;-79
2023/02/18 06:36:12;;;;;;;5.68;2.92;;;12.30;99.90;;;;;;6155636;29;20436;-78
2023/02/18 06:39:14;;;;;;;5.63;2.88;;;12.40;99.90;;;;;;6156838;29;20070;-79
2023/02/18 06:42:17;;;;;;;3.35;3.00;;;12.40;99.90;;;;;;6155513;28;20051;-78
2023/02/18 06:45:19;;;;;;;3.72;3.33;;;12.40;99.90;;;;;;6154058;28;20527;-78
2023/02/18 06:48:22;;;;;;;3.08;2.78;;;12.50;99.90;;;;;;6154121;28;20500;-78
2023/02/18 06:51:26;;;;;;;4.20;3.80;;;12.50;99.90;;;;;;6157248;29;20117;-78
2023/02/18 06:54:30;;;;;;;3.30;3.00;;;12.60;99.90;;;;;;6158911;28;20050;-79
2023/02/18 06:57:37;;;;;;;3.22;2.92;;;12.60;99.90;;;;;;6160885;28;20433;-78
2023/02/18 07:00:41;;;;;;;3.03;2.67;;;12.60;99.90;;;;;;6157319;28;20047;-79
2023/02/18 07:03:43;;;;;;;2.67;2.47;;;12.60;99.90;;;;;;6154413;29;20071;-79
2023/02/18 07:06:56;;;;;;;6.68;3.55;;;12.70;99.90;;;;;;6136824;28;20055;-78
2023/02/18 07:09:58;;;;;;;3.28;2.55;;;12.70;99.90;;;;;;6128294;28;20051;-78
2023/02/18 07:13:01;;;;;;;2.70;2.50;;;12.80;99.90;;;;;;6129173;29;20433;-79
2023/02/18 07:16:08;;;;;;;3.25;2.95;;;12.90;99.90;;;;;;6129590;29;20587;-78
2023/02/18 07:19:10;;;;;;;3.42;2.65;;;12.90;99.90;;;;;;6102367;29;20055;-78
2023/02/18 07:22:12;;;;;;;3.10;2.45;;;12.90;99.90;;;;;;6129230;29;20047;-79
2023/02/18 07:25:13;;;;;;;2.50;2.20;;;13.00;99.90;;;;;;6141262;29;20050;-78
2023/02/18 07:28:18;;;;;;;3.20;2.42;;;13.00;99.90;;;;;;6156447;28;20206;-78
2023/02/18 07:31:19;;;;;;;3.13;2.58;;;13.10;99.90;;;;;;6157140;29;20051;-78
2023/02/18 07:34:21;;;;;;;2.88;2.15;;;13.10;99.90;;;;;;6149134;28;20051;-79
2023/02/18 07:37:23;;;;;;;3.53;2.25;;;13.20;99.90;;;;;;6160245;29;20425;-80
2023/02/18 07:40:25;;;;;;;2.80;2.25;;;13.20;99.90;;;;;;6154569;28;20529;-78
2023/02/18 07:43:28;;;;;;;2.60;2.15;;;13.30;99.90;;;;;;6152776;29;20502;-78
2023/02/18 07:46:30;;;;;;;2.58;2.38;;;13.30;99.90;;;;;;6153716;28;20055;-79
2023/02/18 07:49:32;;;;;;;2.30;2.10;;;13.40;99.90;;;;;;6155005;28;20051;-78
2023/02/18 07:52:33;;;;;;;2.25;1.90;;;13.40;99.90;;;;;;6152932;28;20050;-77
2023/02/18 07:55:51;;;;;;;2.15;1.95;;;13.40;99.90;;;;;;6154017;29;20122;-80
2023/02/18 07:58:54;;;;;;;2.38;2.17;;;13.40;99.90;;;;;;6154085;29;20125;-78
2023/02/18 08:01:56;;;;;;;2.75;2.17;;;13.50;99.90;;;;;;6152481;28;20055;-78
2023/02/18 08:04:58;;;;;;;6.78;4.63;;;13.50;99.90;;;;;;6153134;28;20556;-77
2023/02/18 08:07:59;;;;;;;2.58;1.98;;;13.60;99.90;;;;;;6149107;28;20058;-78
2023/02/18 08:11:02;;;;;;;3.42;2.75;;;13.60;99.90;;;;;;6152365;29;20054;-77
2023/02/18 08:14:06;;;;;;;3.00;2.63;;;13.70;99.90;;;;;;6151933;28;20074;-79
2023/02/18 08:17:07;;;;;;;3.40;3.08;;;13.70;99.90;;;;;;6153426;28;20047;-78
2023/02/18 08:20:10;;;;;;;2.40;2.10;;;13.80;99.90;;;;;;6152004;28;20066;-79
2023/02/18 08:23:12;;;;;;;2.97;2.67;;;13.80;99.90;;;;;;6152699;29;20047;-77
2023/02/18 08:26:14;;;;;;;2.30;2.10;;;13.80;99.90;;;;;;6151637;28;20050;-78
2023/02/18 08:29:17;;;;;;;2.20;2.03;;;14.00;99.90;;;;;;6143040;28;20636;-78
2023/02/18 08:32:18;;;;;;;2.63;2.33;;;14.00;99.90;;;;;;6104548;29;20391;-78
2023/02/18 08:35:20;;;;;;;2.25;2.05;;;14.10;99.90;;;;;;6105510;29;20071;-78
2023/02/18 08:38:23;;;;;;;2.20;1.95;;;14.10;99.90;;;;;;6104427;29;20047;-78
2023/02/18 08:41:25;;;;;;;4.18;1.95;;;14.20;99.90;;;;;;6103321;29;20052;-78
2023/02/18 08:44:28;;;;;;;3.58;1.80;;;14.20;99.90;;;;;;6115432;28;20055;-78
2023/02/18 08:47:30;;;;;;;3.28;2.42;;;14.20;99.90;;;;;;6152575;29;20055;-78
2023/02/18 08:50:31;;;;;;;2.55;1.73;;;14.20;99.90;;;;;;6150987;29;20055;-79
2023/02/18 08:53:33;;;;;;;2.30;1.77;;;14.20;99.90;;;;;;6150769;29;20054;-78
2023/02/18 08:56:35;;;;;;;1.92;1.73;;;14.30;99.90;;;;;;6151206;28;20043;-78
2023/02/18 08:59:38;;;;;;;2.75;2.20;;;14.20;99.90;;;;;;6151462;29;20051;-77
2023/02/18 09:02:39;;;;;;;1.60;1.50;;;14.30;99.90;;;;;;6151114;28;20058;-79
2023/02/18 09:05:41;;;;;;;3.58;2.42;;;14.30;99.90;;;;;;6152790;28;20054;-79
2023/02/18 09:08:43;;;;;;;2.35;2.15;;;14.30;99.90;;;;;;6147787;28;20047;-78
2023/02/18 09:11:46;;;;;;;2.83;1.75;;;14.30;99.90;;;;;;6151685;29;20130;-79
2023/02/18 09:14:49;;;;;;;4.13;1.90;;;14.20;99.90;;;;;;6151477;29;20066;-78
2023/02/18 09:17:50;;;;;;;2.20;1.55;;;14.30;99.90;;;;;;6150750;28;20055;-77
2023/02/18 09:20:55;;;;;;;1.92;1.70;;;14.30;99.90;;;;;;6151312;28;20522;-78
2023/02/18 09:23:58;;;;;;;2.08;1.73;;;14.30;99.90;;;;;;6151135;28;20054;-78
2023/02/18 09:27:00;;;;;;;3.17;2.97;;;14.40;99.90;;;;;;6150991;29;20066;-78
2023/02/18 09:30:03;;;;;;;3.00;1.73;;;14.50;99.90;;;;;;6151057;28;20047;-78
2023/02/18 09:33:05;;;;;;;4.22;1.90;;;14.60;99.90;;;;;;6149403;28;20062;-78
2023/02/18 09:36:07;;;;;;;5.43;2.08;;;14.60;99.90;;;;;;6154579;28;20047;-78
2023/02/18 09:39:11;;;;;;;3.47;1.63;;;14.70;99.90;;;;;;6151568;29;20081;-77
2023/02/18 09:42:15;;;;;;;6.88;2.58;;;14.70;99.90;;;;;;6151525;29;20462;-78
2023/02/18 09:45:18;;;;;;;2.83;2.25;;;14.70;99.90;;;;;;6151094;29;20053;-77
2023/02/18 09:48:26;;;;;;;2.25;2.05;;;14.70;99.90;;;;;;6150629;29;20052;-78
2023/02/18 09:51:28;;;;;;;2.20;1.77;;;14.60;99.90;;;;;;6152498;29;20055;-78
2023/02/18 09:54:29;;;;;;;1.95;1.80;;;14.50;99.90;;;;;;6150482;29;20047;-78
2023/02/18 09:57:39;;;;;;;2.53;2.22;;;14.60;99.90;;;;;;6153226;28;20051;-78
2023/02/18 10:00:45;;;;;;;4.10;1.90;;;14.60;99.90;;;;;;6131576;29;20059;-78
2023/02/18 10:03:47;;;;;;;2.30;1.88;;;14.60;99.90;;;;;;6131538;29;20450;-78
2023/02/18 10:06:50;;;;;;;2.58;2.38;;;14.60;99.90;;;;;;6138606;29;20043;-78
2023/02/18 10:09:53;;;;;;;2.40;2.20;;;14.60;99.90;;;;;;6146953;28;20051;-77
2023/02/18 10:12:56;;;;;;;1.90;1.70;;;14.60;99.90;;;;;;6156801;28;20047;-78
2023/02/18 10:16:00;;;;;;;1.98;1.88;;;14.60;99.90;;;;;;6156130;28;20047;-80
2023/02/18 10:19:12;;;;;;;2.33;1.80;;;14.50;99.90;;;;;;6156786;29;20055;-78
2023/02/18 10:22:15;;;;;;;5.05;3.58;;;14.50;99.90;;;;;;6157637;28;20054;-81
2023/02/18 10:25:20;;;;;;;2.17;1.98;;;14.50;99.90;;;;;;6158377;28;20051;-78
2023/02/18 10:28:26;;;;;;;2.20;1.83;;;14.50;99.90;;;;;;6155746;28;20058;-79
2023/02/18 10:31:34;;;;;;;2.53;1.95;;;14.50;99.90;;;;;;6158168;29;20052;-79
2023/02/18 10:34:43;;;;;;;2.35;2.15;;;14.40;99.90;;;;;;6157122;28;20050;-76
2023/02/18 10:38:00;;;;;;;1.90;1.75;;;14.40;99.90;;;;;;6156010;29;20051;-79
2023/02/18 10:41:09;;;;;;;2.47;2.03;;;14.40;99.90;;;;;;6154823;28;20059;-77
2023/02/18 10:44:18;;;;;;;2.65;2.45;;;14.40;99.90;;;;;;6154073;28;20051;-78
2023/02/18 10:47:34;;;;;;;2.40;2.00;;;14.40;99.90;;;;;;6155320;29;20058;-77
2023/02/18 10:50:39;;;;;;;2.42;1.70;;;14.40;99.90;;;;;;6153367;28;20050;-78
2023/02/18 10:53:43;;;;;;;2.25;1.85;;;14.40;99.90;;;;;;6153845;28;20047;-77
2023/02/18 10:56:48;;;;;;;4.32;4.00;;;14.50;99.90;;;;;;6154859;28;20047;-79
2023/02/18 11:00:09;;;;;;;19.52;17.45;;;14.60;99.90;;;;;;6154551;28;20055;-78
2023/02/18 11:03:18;;;;;;;8.98;8.07;;;14.70;99.90;;;;;;6154252;29;20066;-78
2023/02/18 11:06:25;;;;;;;5.38;3.20;;;14.80;99.90;;;;;;6153977;28;20054;-79
2023/02/18 11:09:34;;;;;;;6.13;4.65;;;14.90;99.90;;;;;;6149093;28;20046;-78
2023/02/18 11:12:44;;;;;;;35.80;25.00;;;15.10;99.90;;;;;;6129859;29;20047;-79
2023/02/18 11:15:58;;;;;;;8.68;6.45;;;15.20;99.90;;;;;;6130071;29;20052;-77
2023/02/18 11:19:03;;;;;;;4.95;3.13;;;15.20;99.90;;;;;;6131305;29;20058;-80
2023/02/18 11:22:09;;;;;;;9.05;1.95;;;15.20;99.90;;;;;;6129607;28;20067;-78
2023/02/18 11:25:20;;;;;;;2.28;2.08;;;15.40;99.90;;;;;;6134552;29;20050;-78
2023/02/18 11:28:36;;;;;;;5.00;3.97;;;15.40;99.90;;;;;;6154221;28;20055;-78
2023/02/18 11:31:42;;;;;;;3.55;3.25;;;15.40;99.90;;;;;;6153509;29;20062;-78
2023/02/18 11:34:47;;;;;;;2.08;1.88;;;15.50;99.90;;;;;;6153629;28;20055;-78
2023/02/18 11:37:49;;;;;;;3.55;3.25;;;15.60;99.90;;;;;;6152385;28;20133;-77
2023/02/18 11:40:55;;;;;;;3.70;2.78;;;15.70;99.90;;;;;;6153494;28;20054;-79
2023/02/18 11:43:58;;;;;;;3.72;3.38;;;15.60;99.90;;;;;;6153366;28;20433;-78
2023/02/18 11:47:02;;;;;;;62.55;52.88;;;15.70;99.90;;;;;;6153887;29;20418;-78
2023/02/18 11:50:16;;;;;;;6.60;6.00;;;15.60;99.90;;;;;;6151947;28;20043;-78
2023/02/18 11:53:30;;;;;;;2.75;2.10;;;15.60;99.90;;;;;;6152660;28;20047;-77
2023/02/18 11:56:35;;;;;;;4.18;2.42;;;15.70;99.90;;;;;;6153080;28;20055;-78
2023/02/18 11:59:39;;;;;;;3.58;1.90;;;15.70;99.90;;;;;;6145928;29;20066;-78
2023/02/18 12:02:42;;;;;;;3.38;2.17;;;15.80;99.90;;;;;;6152631;28;20050;-78
2023/02/18 12:05:46;;;;;;;2.60;1.95;;;15.80;99.90;;;;;;6152986;28;20044;-80
2023/02/18 12:08:51;;;;;;;2.50;2.28;;;15.70;99.90;;;;;;6152918;28;20051;-78
2023/02/18 12:11:56;;;;;;;6.05;2.70;;;15.70;99.90;;;;;;6136107;28;20067;-78
2023/02/18 12:14:59;;;;;;;4.30;2.78;;;15.70;99.90;;;;;;6129664;29;20494;-78
2023/02/18 12:18:21;;;;;;;5.03;3.28;;;15.70;99.90;;;;;;6129167;29;20395;-79
2023/02/18 12:21:36;;;;;;;4.50;2.67;;;15.60;99.90;;;;;;6134522;29;20047;-79
2023/02/18 12:25:03;;;;;;;2.42;2.22;;;15.50;99.90;;;;;;6135111;29;20048;-78
2023/02/18 12:28:18;;;;;;;3.38;2.47;;;15.50;99.90;;;;;;6151299;28;20417;-78
2023/02/18 12:31:34;;;;;;;6.55;3.28;;;15.40;99.90;;;;;;6153300;29;20047;-78
2023/02/18 12:34:46;;;;;;;8.48;7.57;;;15.40;99.90;;;;;;6153785;28;20051;-79
2023/02/18 12:38:03;;;;;;;11.48;10.48;;;15.30;99.90;;;;;;6153005;29;20054;-78
2023/02/18 12:41:16;;;;;;;10.77;8.85;;;15.30;99.90;;;;;;6151931;28;20129;-76
2023/02/18 12:44:30;;;;;;;9.73;7.78;;;15.30;99.90;;;;;;6151871;28;20067;-78
2023/02/18 12:47:49;;;;;;;58.80;36.25;;;15.20;99.90;;;;;;6151889;29;20410;-77
2023/02/18 12:51:16;;;;;;;82.40;53.00;;;15.20;99.90;;;;;;6176405;23;20047;-80
2023/02/18 12:54:33;;;;;;;23.60;17.02;;;15.40;99.90;;;;;;6127996;28;20062;-83
2023/02/18 12:57:47;;;;;;;23.23;16.33;;;15.40;99.90;;;;;;6128286;29;20052;-83
2023/02/18 13:01:08;;;;;;;15.65;11.27;;;15.50;99.90;;;;;;6128192;29;20079;-85
2023/02/18 13:04:26;;;;;;;14.40;10.88;;;15.60;99.90;;;;;;6149432;29;20055;-82
2023/02/18 13:07:41;;;;;;;9.02;6.75;;;15.60;99.90;;;;;;6141684;28;20162;-84
2023/02/18 13:11:08;;;;;;;3.88;3.42;;;15.60;99.90;;;;;;6129128;29;20047;-82
2023/02/18 13:14:15;;;;;;;4.93;4.43;;;15.50;99.90;;;;;;6126217;29;20421;-83
2023/02/18 13:17:20;;;;;;;4.72;3.50;;;15.50;99.90;;;;;;6136433;29;20051;-83
2023/02/18 13:20:27;;;;;;;3.65;2.97;;;15.40;99.90;;;;;;6131545;29;20061;-82
2023/02/18 13:23:32;;;;;;;3.83;3.38;;;15.50;99.90;;;;;;6130322;29;20056;-82
2023/02/18 13:26:38;;;;;;;6.70;2.88;;;15.50;99.90;;;;;;6122900;29;20044;-82
2023/02/18 13:29:47;;;;;;;5.20;4.13;;;15.50;99.90;;;;;;6105916;29;20052;-81
2023/02/18 13:33:01;;;;;;;2.78;2.38;;;15.70;99.90;;;;;;6113431;29;20044;-84
2023/02/18 13:36:11;;;;;;;3.40;2.63;;;16.20;99.90;;;;;;6135431;29;20059;-80
2023/02/18 13:39:18;;;;;;;3.33;3.03;;;16.40;99.90;;;;;;6136124;29;20062;-81
2023/02/18 13:42:38;;;;;;;3.85;2.20;;;16.60;99.90;;;;;;6137204;29;20051;-81
2023/02/18 13:45:40;;;;;;;4.60;2.17;;;16.60;99.80;;;;;;6110870;29;20055;-81
2023/02/18 13:48:45;;;;;;;3.17;2.67;;;16.60;99.70;;;;;;6107085;29;20044;-80
2023/02/18 13:51:50;;;;;;;2.10;1.77;;;16.60;99.20;;;;;;6107037;29;20055;-80
2023/02/18 13:54:51;;;;;;;2.35;2.13;;;16.40;98.60;;;;;;6110066;29;20063;-79
2023/02/18 13:57:55;;;;;;;3.40;2.10;;;16.10;98.40;;;;;;6114394;29;20506;-80
2023/02/18 14:01:02;;;;;;;2.33;1.95;;;16.00;98.40;;;;;;6130371;29;20047;-80
2023/02/18 14:04:47;;;;;;;4.15;2.67;;;15.90;98.10;;;;;;6137445;29;20059;-80
2023/02/18 14:07:52;;;;;;;4.43;2.10;;;15.90;98.30;;;;;;6136035;29;20059;-79
2023/02/18 14:11:30;;;;;;;5.00;3.00;;;15.90;98.10;;;;;;6134259;29;20063;-82
2023/02/18 14:14:39;;;;;;;1.83;1.65;;;16.10;97.90;;;;;;6108984;29;20498;-81
2023/02/18 14:17:44;;;;;;;2.20;1.67;;;16.20;97.80;;;;;;6108001;29;20048;-80
2023/02/18 14:21:08;;;;;;;4.25;2.60;;;16.20;97.30;;;;;;6130184;29;20043;-82
2023/02/18 14:28:38;;;;;;;8.70;7.93;;;16.10;96.80;;;;;;6111629;29;20142;-81
2023/02/18 14:31:54;;;;;;;12.70;7.40;;;16.10;96.70;;;;;;6130390;29;20059;-82
2023/02/18 14:39:29;;;;;;;4.60;4.20;;;16.00;96.50;;;;;;6348476;27;20761;-82
2023/02/18 14:42:40;;;;;;;4.18;2.08;;;15.80;96.40;;;;;;6271910;28;20530;-82
2023/02/18 14:46:00;;;;;;;6.20;2.55;;;15.80;96.60;;;;;;6270647;28;20587;-81
2023/02/18 14:49:16;;;;;;;1.65;1.45;;;15.70;96.70;;;;;;6269891;28;20049;-81
2023/02/18 14:52:31;;;;;;;3.25;1.55;;;15.60;96.70;;;;;;6271276;28;20045;-83
2023/02/18 14:55:37;;;;;;;6.45;2.55;;;15.50;96.80;;;;;;6289061;28;20044;-81
2023/02/18 14:58:43;;;;;;;1.30;1.20;;;15.40;96.90;;;;;;6299856;28;20116;-81
2023/02/18 15:01:47;;;;;;;1.92;1.17;;;15.30;97.10;;;;;;6296330;28;20555;-81
2023/02/18 15:04:49;;;;;;;1.95;1.20;;;15.20;96.90;;;;;;6296198;28;20580;-83
2023/02/18 15:07:59;;;;;;;1.77;1.63;;;15.10;97.10;;;;;;6295491;28;20437;-82
2023/02/18 15:11:06;;;;;;;1.58;1.40;;;15.00;97.30;;;;;;6295730;28;20061;-80
2023/02/18 15:14:11;;;;;;;2.90;1.75;;;15.10;97.50;;;;;;6298004;28;20525;-81
2023/02/18 15:17:14;;;;;;;1.85;1.60;;;14.90;97.60;;;;;;6293427;28;20413;-82
2023/02/18 15:20:17;;;;;;;2.40;2.20;;;14.90;97.70;;;;;;6274683;28;20045;-82
2023/02/18 15:23:19;;;;;;;2.83;2.45;;;14.80;97.80;;;;;;6293015;28;20053;-82
2023/02/18 15:26:35;;;;;;;1.90;1.50;;;14.80;98.00;;;;;;6276816;28;20049;-82
2023/02/18 15:29:37;;;;;;;3.10;1.95;;;14.80;98.00;;;;;;6274125;28;20063;-82
2023/02/18 15:32:39;;;;;;;1.90;1.65;;;14.70;98.10;;;;;;6279345;28;20502;-83
2023/02/18 15:35:42;;;;;;;5.25;2.30;;;14.70;98.20;;;;;;6293137;28;20057;-80
2023/02/18 15:38:50;;;;;;;1.25;1.13;;;14.70;98.20;;;;;;6278928;28;20135;-83
2023/02/18 15:41:55;;;;;;;2.42;2.03;;;14.60;98.30;;;;;;6271557;28;20558;-83
2023/02/18 15:45:01;;;;;;;3.47;1.70;;;14.50;98.30;;;;;;6269026;28;20411;-83
2023/02/18 15:48:04;;;;;;;1.92;1.58;;;14.50;98.50;;;;;;6268032;28;20052;-83
2023/02/18 15:51:11;;;;;;;1.55;1.45;;;14.40;98.50;;;;;;6275673;28;20052;-82
2023/02/18 15:54:18;;;;;;;4.27;2.13;;;14.30;98.60;;;;;;6274470;28;20064;-82
2023/02/18 15:57:26;;;;;;;2.65;1.73;;;14.40;98.70;;;;;;6276749;28;20286;-82
2023/02/18 16:00:31;;;;;;;2.15;1.90;;;14.20;98.70;;;;;;6276563;28;20048;-83
2023/02/18 16:03:45;;;;;;;1.52;1.40;;;14.20;99.00;;;;;;6274726;28;20040;-82
2023/02/18 16:06:49;;;;;;;5.50;2.10;;;14.20;99.10;;;;;;6272416;28;20505;-82
2023/02/18 16:10:07;;;;;;;22.35;20.00;;;14.10;99.20;;;;;;6275453;28;20053;-80
2023/02/18 16:13:15;;;;;;;3.65;3.35;;;14.10;99.30;;;;;;6278169;28;20068;-83
2023/02/18 16:16:29;;;;;;;6.25;2.40;;;14.10;99.40;;;;;;6275773;28;20049;-81